createdAt,value
2019-03-25T00:00:08.234Z,6.48
2019-03-25T00:01:08.242Z,6.58
2019-03-25T00:02:08.242Z,6.58
2019-03-25T00:03:08.353Z,6.50
2019-03-25T00:04:08.229Z,6.46
2019-03-25T00:05:08.259Z,6.38
2019-03-25T00:06:08.174Z,6.39
2019-03-25T00:07:08.183Z,6.38
2019-03-25T00:08:08.170Z,6.40
2019-03-25T00:09:08.196Z,6.38
2019-03-25T00:10:08.124Z,6.30
2019-03-25T00:11:08.127Z,6.35
2019-03-25T00:12:08.115Z,6.28
2019-03-25T00:13:08.092Z,6.39
2019-03-25T00:14:08.124Z,6.33
2019-03-25T00:15:08.105Z,6.32
2019-03-25T00:16:08.054Z,6.33
2019-03-25T00:17:08.050Z,6.24
2019-03-25T00:18:08.044Z,6.30
2019-03-25T00:19:08.053Z,6.24
2019-03-25T00:20:08.015Z,6.28
2019-03-25T00:21:08.003Z,6.25
2019-03-25T00:22:07.996Z,6.16
2019-03-25T00:23:07.990Z,6.24
2019-03-25T00:24:08.128Z,6.21
2019-03-25T00:25:07.956Z,6.21
2019-03-25T00:26:08.009Z,6.28
2019-03-25T00:27:08.023Z,6.21
2019-03-25T00:28:08.014Z,6.20
2019-03-25T00:29:08.119Z,6.25
2019-03-25T00:30:08.115Z,6.28
2019-03-25T00:31:07.955Z,6.24
2019-03-25T00:32:07.924Z,6.25
2019-03-25T00:33:07.897Z,6.25
2019-03-25T00:34:07.986Z,6.25
2019-03-25T00:35:07.958Z,6.28
2019-03-25T00:36:07.916Z,6.28
2019-03-25T00:37:07.905Z,6.30
2019-03-25T00:38:07.878Z,6.27
2019-03-25T00:39:07.896Z,6.33
2019-03-25T00:40:07.821Z,6.33
2019-03-25T00:41:07.906Z,6.33
2019-03-25T00:42:07.808Z,6.33
2019-03-25T00:43:17.405Z,6.39
2019-03-25T00:44:07.829Z,6.38
2019-03-25T00:45:17.967Z,6.33
2019-03-25T00:46:07.736Z,6.35
2019-03-25T00:47:16.038Z,6.33
2019-03-25T00:48:15.331Z,6.45
2019-03-25T00:49:07.749Z,6.45
2019-03-25T00:51:27.009Z,6.42
2019-03-25T00:52:34.387Z,6.43
2019-03-25T00:53:26.927Z,6.45
2019-03-25T00:54:35.488Z,6.45
2019-03-25T00:57:55.323Z,6.45
2019-03-25T00:59:04.007Z,6.50
2019-03-25T01:00:03.527Z,6.48
2019-03-25T01:02:11.663Z,6.57
2019-03-25T01:04:20.994Z,6.48
2019-03-25T01:05:20.971Z,6.40
2019-03-25T01:06:20.971Z,6.42
2019-03-25T01:07:20.992Z,6.50
2019-03-25T01:08:20.993Z,6.46
2019-03-25T01:09:20.948Z,6.39
2019-03-25T01:10:20.933Z,6.40
2019-03-25T01:11:20.905Z,6.43
2019-03-25T01:12:20.908Z,6.36
2019-03-25T01:13:27.944Z,6.40
2019-03-25T01:14:20.901Z,6.45
2019-03-25T01:15:28.410Z,6.40
2019-03-25T01:16:28.449Z,6.50
2019-03-25T01:17:28.429Z,6.40
2019-03-25T01:18:30.451Z,6.43
2019-03-25T01:19:27.934Z,6.43
2019-03-25T01:20:20.937Z,6.42
2019-03-25T01:21:20.805Z,6.42
2019-03-25T01:22:21.019Z,6.42
2019-03-25T01:23:28.350Z,6.39
2019-03-25T01:24:20.813Z,6.43
2019-03-25T01:25:28.339Z,6.36
2019-03-25T01:26:28.373Z,6.38
2019-03-25T01:27:20.767Z,6.36
2019-03-25T01:28:28.266Z,6.39
2019-03-25T01:29:20.762Z,6.40
2019-03-25T01:30:20.719Z,6.38
2019-03-25T01:31:20.696Z,6.38
2019-03-25T01:32:20.707Z,6.39
2019-03-25T01:33:20.656Z,6.43
2019-03-25T01:34:20.684Z,6.36
2019-03-25T01:35:20.664Z,6.33
2019-03-25T01:36:20.643Z,6.27
2019-03-25T01:37:20.636Z,6.28
2019-03-25T01:38:20.641Z,6.24
2019-03-25T01:39:20.603Z,6.32
2019-03-25T01:40:20.596Z,6.28
2019-03-25T01:41:20.566Z,6.19
2019-03-25T01:42:20.558Z,6.28
2019-03-25T01:43:20.578Z,6.21
2019-03-25T01:44:20.583Z,6.16
2019-03-25T01:45:20.531Z,6.30
2019-03-25T01:46:20.530Z,6.21
2019-03-25T01:47:20.499Z,6.19
2019-03-25T01:48:20.506Z,6.14
2019-03-25T01:49:30.320Z,6.20
2019-03-25T01:50:20.519Z,6.17
2019-03-25T01:51:28.044Z,6.14
2019-03-25T01:52:20.434Z,6.16
2019-03-25T01:53:20.431Z,6.08
2019-03-25T01:54:20.424Z,6.08
2019-03-25T01:55:20.442Z,6.08
2019-03-25T01:56:20.404Z,6.02
2019-03-25T01:57:20.396Z,6.03
2019-03-25T01:58:20.374Z,6.05
2019-03-25T01:59:20.382Z,6.10
2019-03-25T02:00:20.352Z,6.05
2019-03-25T02:01:20.357Z,5.96
2019-03-25T02:02:20.338Z,5.96
2019-03-25T02:03:20.365Z,5.99
2019-03-25T02:04:20.347Z,5.99
2019-03-25T02:05:20.288Z,5.96
2019-03-25T02:06:20.280Z,5.98
2019-03-25T02:07:20.267Z,5.98
2019-03-25T02:08:20.266Z,5.98
2019-03-25T02:09:20.276Z,6.01
2019-03-25T02:10:20.252Z,5.96
2019-03-25T02:11:22.227Z,5.96
2019-03-25T02:12:20.217Z,5.90
2019-03-25T02:13:20.215Z,6.06
2019-03-25T02:14:20.217Z,6.01
2019-03-25T02:15:20.183Z,5.98
2019-03-25T02:16:20.181Z,5.95
2019-03-25T02:17:20.159Z,5.87
2019-03-25T02:18:20.140Z,5.93
2019-03-25T02:19:20.167Z,5.98
2019-03-25T02:20:26.331Z,5.96
2019-03-25T02:21:21.104Z,5.90
2019-03-25T02:22:20.090Z,5.90
2019-03-25T02:23:20.096Z,5.93
2019-03-25T02:24:20.097Z,6.02
2019-03-25T02:25:25.223Z,5.92
2019-03-25T02:26:21.068Z,5.95
2019-03-25T02:27:27.631Z,5.85
2019-03-25T02:28:20.107Z,5.85
2019-03-25T02:29:20.067Z,5.84
2019-03-25T02:30:20.022Z,5.93
2019-03-25T02:31:19.989Z,5.80
2019-03-25T02:32:19.985Z,5.85
2019-03-25T02:33:20.000Z,5.84
2019-03-25T02:34:19.970Z,5.83
2019-03-25T02:35:19.972Z,5.85
2019-03-25T02:36:19.977Z,5.77
2019-03-25T02:37:19.985Z,5.77
2019-03-25T02:38:19.908Z,5.75
2019-03-25T02:39:20.031Z,5.73
2019-03-25T02:40:19.897Z,5.80
2019-03-25T02:41:19.887Z,5.81
2019-03-25T02:42:19.918Z,5.69
2019-03-25T02:43:19.856Z,5.75
2019-03-25T02:44:19.914Z,5.67
2019-03-25T02:45:19.833Z,5.70
2019-03-25T02:46:19.817Z,5.69
2019-03-25T02:47:19.830Z,5.70
2019-03-25T02:48:19.834Z,5.74
2019-03-25T02:49:19.811Z,5.66
2019-03-25T02:50:19.841Z,5.70
2019-03-25T02:51:19.769Z,5.74
2019-03-25T02:52:19.763Z,5.77
2019-03-25T02:53:19.768Z,5.70
2019-03-25T02:54:19.739Z,5.77
2019-03-25T02:55:19.729Z,5.65
2019-03-25T02:56:19.703Z,5.67
2019-03-25T02:57:19.701Z,5.78
2019-03-25T02:58:19.702Z,5.67
2019-03-25T02:59:19.675Z,5.73
2019-03-25T03:00:19.711Z,5.70
2019-03-25T03:01:19.654Z,5.75
2019-03-25T03:02:19.663Z,5.78
2019-03-25T03:03:19.643Z,5.84
2019-03-25T03:04:19.655Z,5.90
2019-03-25T03:05:19.613Z,5.80
2019-03-25T03:06:19.587Z,5.77
2019-03-25T03:07:19.611Z,5.85
2019-03-25T03:08:19.566Z,5.83
2019-03-25T03:09:19.576Z,5.90
2019-03-25T03:10:19.569Z,5.95
2019-03-25T03:11:19.550Z,5.92
2019-03-25T03:12:19.542Z,6.01
2019-03-25T03:13:19.519Z,5.99
2019-03-25T03:14:19.521Z,6.02
2019-03-25T03:15:19.507Z,5.98
2019-03-25T03:16:19.485Z,5.95
2019-03-25T03:17:19.488Z,5.98
2019-03-25T03:18:19.484Z,5.99
2019-03-25T03:19:19.472Z,6.01
2019-03-25T03:20:19.447Z,6.01
2019-03-25T03:21:19.413Z,6.03
2019-03-25T03:22:19.418Z,6.06
2019-03-25T03:23:19.393Z,6.02
2019-03-25T03:24:19.382Z,5.98
2019-03-25T03:25:19.381Z,6.02
2019-03-25T03:26:19.370Z,6.02
2019-03-25T03:27:19.353Z,5.90
2019-03-25T03:28:19.344Z,6.01
2019-03-25T03:29:19.352Z,6.05
2019-03-25T03:30:19.366Z,5.98
2019-03-25T03:31:19.318Z,5.98
2019-03-25T03:32:19.322Z,5.88
2019-03-25T03:33:19.343Z,5.88
2019-03-25T03:34:19.292Z,5.84
2019-03-25T03:35:19.275Z,5.81
2019-03-25T03:36:19.271Z,5.84
2019-03-25T03:37:19.246Z,5.88
2019-03-25T03:38:19.233Z,5.87
2019-03-25T03:39:19.257Z,5.81
2019-03-25T03:40:19.264Z,5.93
2019-03-25T03:41:19.191Z,5.88
2019-03-25T03:42:19.177Z,5.83
2019-03-25T03:43:19.228Z,5.80
2019-03-25T03:44:19.199Z,5.80
2019-03-25T03:45:19.170Z,5.83
2019-03-25T03:46:19.130Z,5.87
2019-03-25T03:47:19.150Z,5.92
2019-03-25T03:48:19.120Z,5.83
2019-03-25T03:49:19.125Z,5.90
2019-03-25T03:50:19.171Z,5.81
2019-03-25T03:51:19.079Z,5.92
2019-03-25T03:52:19.074Z,5.80
2019-03-25T03:53:19.072Z,5.77
2019-03-25T03:54:19.089Z,5.77
2019-03-25T03:55:19.030Z,5.75
2019-03-25T03:56:19.032Z,5.73
2019-03-25T03:57:19.011Z,5.78
2019-03-25T03:58:19.007Z,5.73
2019-03-25T03:59:18.993Z,5.81
2019-03-25T04:00:19.004Z,5.70
2019-03-25T04:01:19.004Z,5.74
2019-03-25T04:02:18.951Z,5.66
2019-03-25T04:03:18.947Z,5.73
2019-03-25T04:04:18.947Z,5.74
2019-03-25T04:05:18.925Z,5.73
2019-03-25T04:06:18.941Z,5.73
2019-03-25T04:07:18.896Z,5.73
2019-03-25T04:08:18.892Z,5.67
2019-03-25T04:09:18.893Z,5.70
2019-03-25T04:10:18.887Z,5.66
2019-03-25T04:11:18.905Z,5.67
2019-03-25T04:12:18.866Z,5.70
2019-03-25T04:13:18.822Z,5.70
2019-03-25T04:14:18.814Z,5.75
2019-03-25T04:15:18.810Z,5.75
2019-03-25T04:16:18.827Z,5.74
2019-03-25T04:17:18.775Z,5.80
2019-03-25T04:18:18.816Z,5.70
2019-03-25T04:19:18.755Z,5.67
2019-03-25T04:20:18.792Z,5.67
2019-03-25T04:21:18.764Z,5.83
2019-03-25T04:22:18.739Z,5.73
2019-03-25T04:23:18.725Z,5.70
2019-03-25T04:24:18.722Z,5.74
2019-03-25T04:25:18.701Z,5.77
2019-03-25T04:26:28.666Z,5.78
2019-03-25T04:27:19.661Z,5.75
2019-03-25T04:28:18.696Z,5.80
2019-03-25T04:29:18.687Z,5.83
2019-03-25T04:30:18.653Z,5.77
2019-03-25T04:31:18.665Z,5.77
2019-03-25T04:32:18.612Z,5.78
2019-03-25T04:33:18.700Z,5.84
2019-03-25T04:34:18.624Z,5.81
2019-03-25T04:35:18.608Z,5.83
2019-03-25T04:36:18.568Z,5.90
2019-03-25T04:37:18.573Z,5.88
2019-03-25T04:38:18.565Z,5.84
2019-03-25T04:39:18.536Z,5.88
2019-03-25T04:40:18.550Z,5.88
2019-03-25T04:41:18.546Z,5.92
2019-03-25T04:42:18.585Z,5.83
2019-03-25T04:43:18.503Z,5.88
2019-03-25T04:44:18.476Z,5.81
2019-03-25T04:45:18.497Z,5.92
2019-03-25T04:46:18.478Z,5.88
2019-03-25T04:47:18.439Z,5.87
2019-03-25T04:48:18.429Z,5.85
2019-03-25T04:49:18.415Z,5.99
2019-03-25T04:50:18.842Z,6.01
2019-03-25T04:51:18.398Z,5.96
2019-03-25T04:52:18.404Z,5.95
2019-03-25T04:53:18.362Z,5.88
2019-03-25T04:54:18.406Z,5.99
2019-03-25T04:55:18.353Z,5.90
2019-03-25T04:56:18.342Z,5.98
2019-03-25T04:57:18.331Z,6.01
2019-03-25T04:58:18.320Z,5.95
2019-03-25T04:59:18.303Z,5.93
2019-03-25T05:00:18.285Z,6.03
2019-03-25T05:01:18.606Z,6.02
2019-03-25T05:02:18.307Z,6.01
2019-03-25T05:03:18.315Z,6.08
2019-03-25T05:04:18.583Z,5.96
2019-03-25T05:05:18.246Z,6.05
2019-03-25T05:06:18.258Z,6.06
2019-03-25T05:07:18.258Z,6.01
2019-03-25T05:08:18.266Z,6.05
2019-03-25T05:09:18.211Z,6.05
2019-03-25T05:10:18.175Z,6.03
2019-03-25T05:11:18.195Z,6.08
2019-03-25T05:12:18.155Z,6.08
2019-03-25T05:13:18.173Z,6.11
2019-03-25T05:14:18.143Z,6.05
2019-03-25T05:15:18.110Z,6.06
2019-03-25T05:16:18.693Z,6.05
2019-03-25T05:17:18.106Z,6.06
2019-03-25T05:18:18.103Z,6.10
2019-03-25T05:19:18.068Z,6.03
2019-03-25T05:20:18.058Z,6.01
2019-03-25T05:21:18.062Z,6.06
2019-03-25T05:22:18.045Z,6.10
2019-03-25T05:23:18.070Z,6.16
2019-03-25T05:24:18.007Z,6.05
2019-03-25T05:25:18.006Z,6.10
2019-03-25T05:26:17.993Z,6.17
2019-03-25T05:27:18.005Z,6.20
2019-03-25T05:28:18.012Z,6.11
2019-03-25T05:29:17.975Z,6.20
2019-03-25T05:30:17.947Z,6.13
2019-03-25T05:31:17.943Z,6.17
2019-03-25T05:32:17.914Z,6.19
2019-03-25T05:33:17.905Z,6.14
2019-03-25T05:34:17.899Z,6.17
2019-03-25T05:35:17.881Z,6.14
2019-03-25T05:36:17.903Z,6.13
2019-03-25T05:37:17.928Z,6.13
2019-03-25T05:38:17.850Z,6.17
2019-03-25T05:39:17.834Z,6.17
2019-03-25T05:40:17.903Z,6.11
2019-03-25T05:41:17.840Z,6.20
2019-03-25T05:42:17.825Z,6.20
2019-03-25T05:43:17.791Z,6.16
2019-03-25T05:44:17.801Z,6.03
2019-03-25T05:45:17.813Z,6.08
2019-03-25T05:46:17.781Z,5.98
2019-03-25T05:47:17.792Z,5.99
2019-03-25T05:48:17.735Z,5.85
2019-03-25T05:49:17.741Z,5.59
2019-03-25T05:50:17.734Z,5.63
2019-03-25T05:51:17.705Z,5.58
2019-03-25T05:52:26.879Z,5.48
2019-03-25T05:53:17.686Z,5.35
2019-03-25T05:54:17.662Z,5.32
2019-03-25T05:55:17.757Z,5.09
2019-03-25T05:56:17.642Z,5.02
2019-03-25T05:57:17.650Z,4.96
2019-03-25T05:58:17.639Z,4.91
2019-03-25T05:59:17.609Z,4.86
2019-03-25T06:00:17.613Z,4.90
2019-03-25T06:01:17.612Z,4.80
2019-03-25T06:02:17.601Z,4.83
2019-03-25T06:03:17.677Z,4.79
2019-03-25T06:04:17.559Z,4.80
2019-03-25T06:05:17.634Z,4.77
2019-03-25T06:06:17.535Z,4.72
2019-03-25T06:07:17.540Z,4.61
2019-03-25T06:08:17.930Z,4.72
2019-03-25T06:09:17.550Z,4.72
2019-03-25T06:10:17.520Z,4.62
2019-03-25T06:11:17.477Z,4.62
2019-03-25T06:12:17.530Z,4.64
2019-03-25T06:13:17.459Z,4.57
2019-03-25T06:14:17.518Z,4.51
2019-03-25T06:15:17.461Z,4.57
2019-03-25T06:16:17.421Z,4.64
2019-03-25T06:17:17.428Z,4.64
2019-03-25T06:18:17.436Z,4.59
2019-03-25T06:19:17.392Z,4.57
2019-03-25T06:20:17.405Z,4.62
2019-03-25T06:21:17.429Z,4.62
2019-03-25T06:22:17.602Z,4.57
2019-03-25T06:23:17.344Z,4.57
2019-03-25T06:24:17.335Z,4.43
2019-03-25T06:25:17.326Z,4.43
2019-03-25T06:26:17.310Z,4.38
2019-03-25T06:27:17.325Z,4.39
2019-03-25T06:28:17.300Z,4.43
2019-03-25T06:29:17.284Z,4.36
2019-03-25T06:30:17.267Z,4.31
2019-03-25T06:31:17.303Z,4.26
2019-03-25T06:32:17.268Z,4.29
2019-03-25T06:33:17.256Z,4.32
2019-03-25T06:34:17.229Z,4.28
2019-03-25T06:35:17.243Z,4.25
2019-03-25T06:36:17.200Z,4.14
2019-03-25T06:37:17.207Z,4.08
2019-03-25T06:38:17.186Z,3.92
2019-03-25T06:39:17.169Z,3.93
2019-03-25T06:40:17.269Z,3.84
2019-03-25T06:41:17.146Z,3.88
2019-03-25T06:42:17.136Z,3.77
2019-03-25T06:43:17.326Z,3.67
2019-03-25T06:44:17.121Z,3.63
2019-03-25T06:45:17.102Z,3.57
2019-03-25T06:46:17.181Z,3.52
2019-03-25T06:47:17.088Z,3.52
2019-03-25T06:48:17.236Z,3.39
2019-03-25T06:49:17.068Z,3.52
2019-03-25T06:50:17.062Z,3.50
2019-03-25T06:51:17.047Z,3.52
2019-03-25T06:52:17.025Z,3.41
2019-03-25T06:53:17.047Z,3.52
2019-03-25T06:54:18.829Z,3.41
2019-03-25T06:55:18.037Z,3.41
2019-03-25T06:56:17.084Z,3.46
2019-03-25T06:57:25.185Z,3.53
2019-03-25T06:58:18.082Z,3.59
2019-03-25T06:59:17.157Z,3.33
2019-03-25T07:00:16.945Z,3.41
2019-03-25T07:01:17.098Z,3.46
2019-03-25T07:02:16.985Z,3.34
2019-03-25T07:03:16.897Z,3.39
2019-03-25T07:04:16.900Z,3.34
2019-03-25T07:05:16.875Z,3.30
2019-03-25T07:06:16.869Z,3.37
2019-03-25T07:07:16.884Z,3.35
2019-03-25T07:08:16.842Z,3.41
2019-03-25T07:09:18.737Z,3.39
2019-03-25T07:10:16.824Z,3.41
2019-03-25T07:11:16.818Z,3.45
2019-03-25T07:12:16.801Z,3.37
2019-03-25T07:13:16.784Z,3.35
2019-03-25T07:14:16.790Z,3.49
2019-03-25T07:15:16.769Z,3.50
2019-03-25T07:16:16.758Z,3.50
2019-03-25T07:17:16.766Z,3.54
2019-03-25T07:18:16.753Z,3.53
2019-03-25T07:19:16.774Z,3.53
2019-03-25T07:20:16.712Z,3.59
2019-03-25T07:21:16.702Z,3.54
2019-03-25T07:22:16.714Z,3.62
2019-03-25T07:23:16.708Z,3.64
2019-03-25T07:24:16.728Z,3.71
2019-03-25T07:25:16.649Z,3.67
2019-03-25T07:26:16.642Z,3.71
2019-03-25T07:27:16.631Z,3.78
2019-03-25T07:28:16.628Z,3.67
2019-03-25T07:29:16.648Z,3.81
2019-03-25T07:30:16.598Z,3.89
2019-03-25T07:31:16.587Z,3.95
2019-03-25T07:32:16.576Z,3.80
2019-03-25T07:33:16.643Z,3.95
2019-03-25T07:34:16.571Z,3.84
2019-03-25T07:35:16.573Z,3.99
2019-03-25T07:36:16.527Z,4.04
2019-03-25T07:37:16.518Z,4.04
2019-03-25T07:38:16.515Z,3.99
2019-03-25T07:39:16.507Z,4.17
2019-03-25T07:40:16.514Z,4.11
2019-03-25T07:41:17.192Z,4.18
2019-03-25T07:42:16.465Z,4.17
2019-03-25T07:43:16.449Z,4.16
2019-03-25T07:44:16.466Z,4.24
2019-03-25T07:45:16.457Z,4.16
2019-03-25T07:46:16.484Z,4.24
2019-03-25T07:47:16.406Z,4.28
2019-03-25T07:48:16.392Z,4.21
2019-03-25T07:49:16.461Z,4.32
2019-03-25T07:50:16.379Z,4.34
2019-03-25T07:51:16.369Z,4.29
2019-03-25T07:52:16.388Z,4.28
2019-03-25T07:53:16.339Z,4.34
2019-03-25T07:54:16.409Z,4.34
2019-03-25T07:55:16.866Z,4.34
2019-03-25T07:56:16.321Z,4.46
2019-03-25T07:57:16.311Z,4.49
2019-03-25T07:58:16.310Z,4.51
2019-03-25T07:59:18.141Z,4.51
2019-03-25T08:00:16.273Z,4.51
2019-03-25T08:01:16.271Z,4.61
2019-03-25T08:02:16.282Z,4.51
2019-03-25T08:03:16.232Z,4.64
2019-03-25T08:04:16.221Z,4.62
2019-03-25T08:05:16.232Z,4.61
2019-03-25T08:06:16.223Z,4.62
2019-03-25T08:07:16.200Z,4.59
2019-03-25T08:08:16.208Z,4.64
2019-03-25T08:09:16.200Z,4.65
2019-03-25T08:10:16.185Z,4.64
2019-03-25T08:11:16.160Z,4.74
2019-03-25T08:12:16.139Z,4.65
2019-03-25T08:13:16.179Z,4.61
2019-03-25T08:14:16.172Z,4.74
2019-03-25T08:15:16.131Z,4.69
2019-03-25T08:16:16.095Z,4.69
2019-03-25T08:17:16.070Z,4.71
2019-03-25T08:18:16.079Z,4.83
2019-03-25T08:19:16.065Z,4.75
2019-03-25T08:20:16.202Z,4.77
2019-03-25T08:21:16.028Z,4.83
2019-03-25T08:22:16.022Z,4.93
2019-03-25T08:23:16.030Z,4.87
2019-03-25T08:24:16.016Z,4.79
2019-03-25T08:25:16.012Z,4.80
2019-03-25T08:26:16.002Z,4.86
2019-03-25T08:27:15.963Z,4.84
2019-03-25T08:28:15.952Z,4.83
2019-03-25T08:29:15.942Z,4.86
2019-03-25T08:30:15.948Z,4.87
2019-03-25T08:31:15.922Z,4.88
2019-03-25T08:32:15.905Z,4.93
2019-03-25T08:33:15.899Z,4.96
2019-03-25T08:34:15.898Z,4.97
2019-03-25T08:35:15.890Z,4.96
2019-03-25T08:36:15.877Z,4.94
2019-03-25T08:37:15.851Z,4.91
2019-03-25T08:38:15.860Z,4.94
2019-03-25T08:39:15.836Z,4.96
2019-03-25T08:40:15.850Z,4.93
2019-03-25T08:41:15.954Z,4.97
2019-03-25T08:42:15.804Z,5.06
2019-03-25T08:43:15.790Z,5.05
2019-03-25T08:44:15.775Z,4.93
2019-03-25T08:45:15.775Z,5.01
2019-03-25T08:46:15.759Z,5.02
2019-03-25T08:47:15.740Z,5.04
2019-03-25T08:48:15.792Z,5.09
2019-03-25T08:49:15.732Z,5.17
2019-03-25T08:50:15.824Z,5.23
2019-03-25T08:51:15.719Z,5.26
2019-03-25T08:52:15.709Z,5.37
2019-03-25T08:53:15.678Z,5.32
2019-03-25T08:54:15.681Z,5.35
2019-03-25T08:55:15.792Z,5.47
2019-03-25T08:56:15.644Z,5.48
2019-03-25T08:57:15.632Z,5.48
2019-03-25T08:58:15.616Z,5.52
2019-03-25T08:59:15.609Z,5.47
2019-03-25T09:00:15.603Z,5.55
2019-03-25T09:01:15.649Z,5.66
2019-03-25T09:02:15.633Z,5.60
2019-03-25T09:03:15.560Z,5.59
2019-03-25T09:04:15.551Z,5.59
2019-03-25T09:05:15.564Z,5.58
2019-03-25T09:06:15.555Z,5.59
2019-03-25T09:07:15.514Z,5.60
2019-03-25T09:08:15.509Z,5.62
2019-03-25T09:09:15.631Z,5.55
2019-03-25T09:10:15.487Z,5.55
2019-03-25T09:11:15.519Z,5.59
2019-03-25T09:12:15.495Z,5.62
2019-03-25T09:13:15.447Z,5.69
2019-03-25T09:14:15.535Z,5.67
2019-03-25T09:15:15.547Z,5.67
2019-03-25T09:16:15.429Z,5.81
2019-03-25T09:17:15.432Z,5.81
2019-03-25T09:18:15.404Z,5.93
2019-03-25T09:19:15.388Z,5.90
2019-03-25T09:20:15.373Z,5.96
2019-03-25T09:21:15.392Z,6.05
2019-03-25T09:22:15.359Z,6.13
2019-03-25T09:23:15.336Z,6.19
2019-03-25T09:24:15.322Z,6.28
2019-03-25T09:25:15.315Z,6.30
2019-03-25T09:26:16.356Z,6.24
2019-03-25T09:27:15.289Z,6.33
2019-03-25T09:28:24.153Z,6.24
2019-03-25T09:29:16.264Z,6.30
2019-03-25T09:30:15.255Z,6.36
2019-03-25T09:31:15.262Z,6.39
2019-03-25T09:32:15.363Z,6.42
2019-03-25T09:33:15.304Z,6.48
2019-03-25T09:34:15.223Z,6.50
2019-03-25T09:35:15.247Z,6.60
2019-03-25T09:36:15.188Z,6.76
2019-03-25T09:37:15.322Z,6.76
2019-03-25T09:38:15.171Z,6.75
2019-03-25T09:39:15.169Z,6.89
2019-03-25T09:40:15.214Z,6.90
2019-03-25T09:41:15.133Z,6.97
2019-03-25T09:42:15.117Z,6.97
2019-03-25T09:43:15.131Z,7.11
2019-03-25T09:44:15.104Z,7.04
2019-03-25T09:45:15.125Z,7.00
2019-03-25T09:46:15.084Z,7.14
2019-03-25T09:47:15.062Z,7.05
2019-03-25T09:48:15.055Z,7.07
2019-03-25T09:49:15.041Z,7.07
2019-03-25T09:50:15.167Z,6.97
2019-03-25T09:51:15.029Z,6.94
2019-03-25T09:52:15.006Z,6.96
2019-03-25T09:53:14.998Z,6.89
2019-03-25T09:54:14.989Z,6.97
2019-03-25T09:55:16.629Z,6.96
2019-03-25T09:56:14.975Z,6.91
2019-03-25T09:57:14.953Z,6.90
2019-03-25T09:58:14.941Z,6.94
2019-03-25T09:59:14.937Z,6.91
2019-03-25T10:00:14.922Z,6.81
2019-03-25T10:01:14.933Z,6.78
2019-03-25T10:02:14.928Z,6.90
2019-03-25T10:03:14.883Z,6.83
2019-03-25T10:04:14.931Z,6.87
2019-03-25T10:05:15.474Z,6.94
2019-03-25T10:06:15.001Z,6.89
2019-03-25T10:07:14.887Z,6.97
2019-03-25T10:08:14.846Z,6.87
2019-03-25T10:09:14.813Z,6.96
2019-03-25T10:10:14.810Z,6.99
2019-03-25T10:11:14.806Z,7.07
2019-03-25T10:12:14.936Z,7.18
2019-03-25T10:13:14.808Z,7.16
2019-03-25T10:14:14.764Z,7.21
2019-03-25T10:15:15.347Z,7.26
2019-03-25T10:16:14.750Z,7.26
2019-03-25T10:17:14.761Z,7.29
2019-03-25T10:18:14.726Z,7.33
2019-03-25T10:19:14.732Z,7.36
2019-03-25T10:20:14.761Z,7.24
2019-03-25T10:21:14.695Z,7.19
2019-03-25T10:22:14.679Z,7.05
2019-03-25T10:23:14.666Z,7.05
2019-03-25T10:24:14.689Z,7.05
2019-03-25T10:25:14.635Z,6.93
2019-03-25T10:26:14.768Z,7.00
2019-03-25T10:27:14.621Z,6.96
2019-03-25T10:28:14.636Z,6.89
2019-03-25T10:29:14.591Z,6.96
2019-03-25T10:30:14.598Z,6.97
2019-03-25T10:31:17.243Z,6.96
2019-03-25T10:32:14.577Z,7.04
2019-03-25T10:33:14.555Z,7.09
2019-03-25T10:34:14.555Z,7.19
2019-03-25T10:35:14.528Z,7.24
2019-03-25T10:36:14.569Z,7.32
2019-03-25T10:37:14.508Z,7.19
2019-03-25T10:38:19.519Z,7.37
2019-03-25T10:39:15.614Z,7.29
2019-03-25T10:40:14.486Z,7.34
2019-03-25T10:41:14.493Z,7.41
2019-03-25T10:42:14.824Z,7.34
2019-03-25T10:43:14.561Z,7.36
2019-03-25T10:44:14.428Z,7.37
2019-03-25T10:45:14.420Z,7.52
2019-03-25T10:46:14.408Z,7.48
2019-03-25T10:47:14.872Z,7.52
2019-03-25T10:48:14.378Z,7.48
2019-03-25T10:49:16.190Z,7.50
2019-03-25T10:50:14.385Z,7.52
2019-03-25T10:51:14.344Z,7.66
2019-03-25T10:52:14.352Z,7.58
2019-03-25T10:53:14.480Z,7.52
2019-03-25T10:54:14.326Z,7.50
2019-03-25T10:55:14.296Z,7.60
2019-03-25T10:56:14.336Z,7.63
2019-03-25T10:57:14.377Z,7.60
2019-03-25T10:58:14.284Z,7.70
2019-03-25T10:59:14.254Z,7.77
2019-03-25T11:00:14.247Z,7.79
2019-03-25T11:01:14.227Z,7.88
2019-03-25T11:02:14.219Z,7.91
2019-03-25T11:03:14.231Z,8.06
2019-03-25T11:04:14.929Z,8.12
2019-03-25T11:05:14.192Z,8.20
2019-03-25T11:06:14.173Z,8.32
2019-03-25T11:07:14.236Z,8.39
2019-03-25T11:08:14.168Z,8.37
2019-03-25T11:09:14.179Z,8.43
2019-03-25T11:10:14.131Z,8.40
2019-03-25T11:11:14.183Z,8.39
2019-03-25T11:12:14.159Z,8.37
2019-03-25T11:13:14.095Z,8.37
2019-03-25T11:14:14.092Z,8.39
2019-03-25T11:15:14.091Z,8.43
2019-03-25T11:16:14.129Z,8.47
2019-03-25T11:17:14.092Z,8.54
2019-03-25T11:18:14.065Z,8.43
2019-03-25T11:19:14.055Z,8.49
2019-03-25T11:20:14.069Z,8.60
2019-03-25T11:21:14.026Z,8.57
2019-03-25T11:22:13.993Z,8.68
2019-03-25T11:23:13.991Z,8.61
2019-03-25T11:24:15.226Z,8.76
2019-03-25T11:25:14.127Z,8.70
2019-03-25T11:26:13.960Z,8.76
2019-03-25T11:27:13.939Z,8.71
2019-03-25T11:28:13.954Z,8.70
2019-03-25T11:29:13.919Z,8.76
2019-03-25T11:30:13.915Z,8.83
2019-03-25T11:31:13.914Z,8.86
2019-03-25T11:32:13.902Z,8.85
2019-03-25T11:33:13.880Z,8.75
2019-03-25T11:34:13.862Z,8.60
2019-03-25T11:35:13.846Z,8.61
2019-03-25T11:36:13.859Z,8.64
2019-03-25T11:37:13.843Z,8.54
2019-03-25T11:38:13.837Z,8.50
2019-03-25T11:39:13.803Z,8.43
2019-03-25T11:40:13.797Z,8.46
2019-03-25T11:41:13.818Z,8.42
2019-03-25T11:42:13.830Z,8.40
2019-03-25T11:43:13.774Z,8.45
2019-03-25T11:44:13.770Z,8.40
2019-03-25T11:45:13.739Z,8.45
2019-03-25T11:46:13.729Z,8.46
2019-03-25T11:47:13.732Z,8.40
2019-03-25T11:48:13.704Z,8.43
2019-03-25T11:49:13.711Z,8.40
2019-03-25T11:50:13.722Z,8.55
2019-03-25T11:51:13.672Z,8.43
2019-03-25T11:52:13.662Z,8.61
2019-03-25T11:53:13.656Z,8.52
2019-03-25T11:54:13.663Z,8.64
2019-03-25T11:55:13.656Z,8.60
2019-03-25T11:56:13.614Z,8.65
2019-03-25T11:57:13.610Z,8.83
2019-03-25T11:58:13.588Z,8.83
2019-03-25T11:59:18.531Z,8.96
2019-03-25T12:00:14.566Z,9.03
2019-03-25T12:01:13.557Z,8.98
2019-03-25T12:02:17.429Z,9.08
2019-03-25T12:03:13.539Z,9.12
2019-03-25T12:04:13.556Z,9.12
2019-03-25T12:05:13.512Z,9.12
2019-03-25T12:06:13.526Z,9.06
2019-03-25T12:07:13.487Z,9.08
2019-03-25T12:08:13.480Z,8.98
2019-03-25T12:09:13.699Z,8.97
2019-03-25T12:10:13.477Z,8.88
2019-03-25T12:11:13.457Z,8.88
2019-03-25T12:12:13.488Z,8.96
2019-03-25T12:13:13.462Z,9.03
2019-03-25T12:14:13.429Z,8.97
2019-03-25T12:15:13.415Z,8.97
2019-03-25T12:16:13.413Z,8.94
2019-03-25T12:17:13.428Z,8.93
2019-03-25T12:18:13.367Z,8.93
2019-03-25T12:19:13.367Z,8.97
2019-03-25T12:20:13.345Z,8.97
2019-03-25T12:21:13.349Z,8.96
2019-03-25T12:22:13.335Z,9.03
2019-03-25T12:23:13.331Z,9.08
2019-03-25T12:24:13.311Z,9.13
2019-03-25T12:25:13.316Z,9.17
2019-03-25T12:26:13.281Z,9.17
2019-03-25T12:27:13.310Z,9.19
2019-03-25T12:28:13.262Z,9.30
2019-03-25T12:29:13.270Z,9.16
2019-03-25T12:30:13.231Z,9.22
2019-03-25T12:31:13.218Z,9.20
2019-03-25T12:32:13.212Z,9.26
2019-03-25T12:33:13.225Z,9.31
2019-03-25T12:34:13.260Z,9.32
2019-03-25T12:35:13.209Z,9.32
2019-03-25T12:36:13.253Z,9.31
2019-03-25T12:37:13.490Z,9.31
2019-03-25T12:38:13.178Z,9.26
2019-03-25T12:39:13.190Z,9.26
2019-03-25T12:40:13.139Z,9.41
2019-03-25T12:41:13.108Z,9.40
2019-03-25T12:42:13.096Z,9.40
2019-03-25T12:43:13.086Z,9.30
2019-03-25T12:44:13.199Z,9.38
2019-03-25T12:45:13.073Z,9.42
2019-03-25T12:46:13.053Z,9.37
2019-03-25T12:47:13.042Z,9.55
2019-03-25T12:48:13.030Z,9.60
2019-03-25T12:49:13.054Z,9.65
2019-03-25T12:50:13.023Z,9.73
2019-03-25T12:51:13.014Z,9.60
2019-03-25T12:52:12.986Z,9.63
2019-03-25T12:53:12.997Z,9.68
2019-03-25T12:54:12.971Z,9.63
2019-03-25T12:55:13.379Z,9.65
2019-03-25T12:56:12.964Z,9.63
2019-03-25T12:57:12.967Z,9.68
2019-03-25T12:58:12.954Z,9.62
2019-03-25T12:59:12.916Z,9.55
2019-03-25T13:00:12.897Z,9.52
2019-03-25T13:01:12.903Z,9.40
2019-03-25T13:02:12.901Z,9.40
2019-03-25T13:03:12.902Z,9.45
2019-03-25T13:04:12.914Z,9.40
2019-03-25T13:05:12.838Z,9.34
2019-03-25T13:06:12.837Z,9.22
2019-03-25T13:07:12.826Z,9.24
2019-03-25T13:08:13.363Z,9.30
2019-03-25T13:09:12.901Z,9.27
2019-03-25T13:10:12.890Z,9.37
2019-03-25T13:11:12.770Z,9.34
2019-03-25T13:12:12.770Z,9.40
2019-03-25T13:13:12.774Z,9.37
2019-03-25T13:14:12.783Z,9.45
2019-03-25T13:15:12.738Z,9.48
2019-03-25T13:16:12.725Z,9.56
2019-03-25T13:17:12.725Z,9.49
2019-03-25T13:18:12.702Z,9.62
2019-03-25T13:19:12.715Z,9.63
2019-03-25T13:20:12.712Z,9.65
2019-03-25T13:21:12.658Z,9.71
2019-03-25T13:22:12.662Z,9.78
2019-03-25T13:23:12.635Z,9.83
2019-03-25T13:24:12.638Z,9.98